createdAt,value
2018-11-23T00:01:16.261Z,73.00
2018-11-23T00:06:19.929Z,72.70
2018-11-23T00:11:25.450Z,72.70
2018-11-23T00:16:29.021Z,73.00
2018-11-23T00:21:32.600Z,72.90
2018-11-23T00:26:36.211Z,72.70
2018-11-23T00:31:39.783Z,72.40
2018-11-23T00:36:43.541Z,72.40
2018-11-23T00:41:47.166Z,72.00
2018-11-23T00:46:50.798Z,70.70
2018-11-23T00:51:54.625Z,71.00
2018-11-23T00:56:58.242Z,70.70
2018-11-23T01:02:03.488Z,71.40
2018-11-23T01:07:07.085Z,70.90
2018-11-23T01:12:10.729Z,70.70
2018-11-23T01:17:14.311Z,71.30
2018-11-23T01:22:17.877Z,71.50
2018-11-23T01:27:22.370Z,72.00
2018-11-23T01:32:26.909Z,72.10
2018-11-23T01:37:31.241Z,72.00
2018-11-23T01:42:36.786Z,72.10
2018-11-23T01:47:40.639Z,72.20
2018-11-23T01:52:45.732Z,71.00
2018-11-23T01:57:49.389Z,71.30
2018-11-23T02:02:54.012Z,71.40
2018-11-23T02:07:57.906Z,71.50
2018-11-23T02:13:01.461Z,71.50
2018-11-23T02:18:05.117Z,71.20
2018-11-23T02:23:10.573Z,71.50
2018-11-23T02:28:14.336Z,71.50
2018-11-23T02:33:17.945Z,71.90
2018-11-23T02:38:21.556Z,72.00
2018-11-23T02:43:25.325Z,72.00
2018-11-23T02:48:29.344Z,72.50
2018-11-23T02:53:34.989Z,72.30
2018-11-23T02:58:38.775Z,71.80
2018-11-23T03:03:43.006Z,72.00
2018-11-23T03:08:47.788Z,71.80
2018-11-23T03:13:51.625Z,71.60
2018-11-23T03:18:55.258Z,71.50
2018-11-23T03:23:58.862Z,71.20
2018-11-23T03:29:02.885Z,71.00
2018-11-23T03:34:07.102Z,70.70
2018-11-23T03:39:12.633Z,70.70
2018-11-23T03:44:16.489Z,71.00
2018-11-23T03:49:35.371Z,71.40
2018-11-23T03:54:39.305Z,71.20
2018-11-23T03:59:42.904Z,71.70
2018-11-23T04:04:46.961Z,71.50
2018-11-23T04:09:51.432Z,71.50
2018-11-23T04:14:55.032Z,71.50
2018-11-23T04:19:58.618Z,71.70
2018-11-23T04:25:02.398Z,71.50
2018-11-23T04:30:09.030Z,71.60
2018-11-23T04:35:14.712Z,72.20
2018-11-23T04:40:19.721Z,71.80
2018-11-23T04:45:24.077Z,71.60
2018-11-23T04:50:27.777Z,71.50
2018-11-23T04:55:31.362Z,71.70
2018-11-23T05:00:35.275Z,71.90
2018-11-23T05:05:38.869Z,71.90
2018-11-23T05:10:42.485Z,72.10
2018-11-23T05:15:46.941Z,72.10
2018-11-23T05:20:50.500Z,72.00
2018-11-23T05:25:54.470Z,72.10
2018-11-23T05:30:58.051Z,71.90
2018-11-23T05:36:01.639Z,72.30
2018-11-23T05:41:05.314Z,72.50
2018-11-23T05:46:09.562Z,72.20
2018-11-23T05:51:13.667Z,73.10
2018-11-23T05:56:23.689Z,72.70
2018-11-23T06:01:27.317Z,72.90
2018-11-23T06:06:30.897Z,73.20
2018-11-23T06:11:34.545Z,73.20
2018-11-23T06:16:39.855Z,73.40
2018-11-23T06:21:43.592Z,73.40
2018-11-23T06:26:47.279Z,73.70
2018-11-23T06:31:50.868Z,73.50
2018-11-23T06:36:54.470Z,73.20
2018-11-23T06:41:58.347Z,73.60
2018-11-23T06:47:02.214Z,73.80
2018-11-23T06:52:05.844Z,74.30
2018-11-23T06:57:09.430Z,74.30
2018-11-23T07:02:14.325Z,74.50
2018-11-23T07:07:17.956Z,74.00
2018-11-23T07:12:22.136Z,73.70
2018-11-23T07:17:25.712Z,73.40
2018-11-23T07:22:29.344Z,73.80
2018-11-23T07:27:32.952Z,73.80
2018-11-23T07:32:38.208Z,73.40
2018-11-23T07:37:41.821Z,73.90
2018-11-23T07:42:46.137Z,73.90
2018-11-23T07:47:50.013Z,74.00
2018-11-23T07:52:53.677Z,73.50
2018-11-23T07:57:57.251Z,73.40
2018-11-23T08:03:00.853Z,73.00
2018-11-23T08:08:05.320Z,72.90
2018-11-23T08:13:08.946Z,73.00
2018-11-23T08:18:12.829Z,73.40
2018-11-23T08:23:16.744Z,73.40
2018-11-23T08:28:20.573Z,73.30
2018-11-23T08:33:24.586Z,73.30
2018-11-23T08:38:28.207Z,73.30
2018-11-23T08:43:31.844Z,73.30
2018-11-23T08:48:35.468Z,73.40
2018-11-23T08:53:39.119Z,73.20
2018-11-23T08:58:43.696Z,73.10
2018-11-23T09:03:47.618Z,73.30
2018-11-23T09:08:51.601Z,73.50
2018-11-23T09:13:55.443Z,73.70
2018-11-23T09:18:59.022Z,73.60
2018-11-23T09:24:03.622Z,73.00
2018-11-23T09:29:07.218Z,72.60
2018-11-23T09:34:11.509Z,73.20
2018-11-23T09:39:15.648Z,73.30
2018-11-23T09:44:19.231Z,72.50
2018-11-23T09:49:22.943Z,72.20
2018-11-23T09:54:26.490Z,72.20
2018-11-23T09:59:30.519Z,72.30
2018-11-23T10:04:35.056Z,72.40
2018-11-23T10:09:38.757Z,72.60
2018-11-23T10:14:42.365Z,72.00
2018-11-23T10:19:46.289Z,71.30
2018-11-23T10:24:50.072Z,70.60
2018-11-23T10:29:55.366Z,72.10
2018-11-23T10:34:57.385Z,71.80
2018-11-23T10:40:01.253Z,71.60
2018-11-23T10:45:06.126Z,71.80
2018-11-23T10:50:12.658Z,71.90
2018-11-23T10:55:18.402Z,71.90
2018-11-23T11:00:28.130Z,71.60
2018-11-23T11:05:37.190Z,71.10
2018-11-23T11:10:42.369Z,71.10
2018-11-23T11:15:46.067Z,71.10
2018-11-23T11:20:50.095Z,70.90
2018-11-23T11:25:57.234Z,70.50
2018-11-23T11:31:00.918Z,70.40
2018-11-23T11:36:05.709Z,70.20
2018-11-23T11:41:09.764Z,70.80
2018-11-23T11:46:13.390Z,70.00
2018-11-23T11:51:17.712Z,70.80
2018-11-23T11:56:23.184Z,71.70
2018-11-23T12:01:27.993Z,71.20
2018-11-23T12:06:32.517Z,72.80
2018-11-23T12:11:36.148Z,73.20
2018-11-23T12:16:41.736Z,71.60
2018-11-23T12:21:45.395Z,70.10
2018-11-23T12:26:54.558Z,71.80
2018-11-23T12:31:58.537Z,71.40
2018-11-23T12:37:02.153Z,69.80
2018-11-23T12:42:06.303Z,68.30
2018-11-23T12:47:12.121Z,68.10
2018-11-23T12:52:15.731Z,68.50
2018-11-23T12:57:19.317Z,68.90
2018-11-23T13:02:25.351Z,68.10
2018-11-23T13:07:29.152Z,67.40
2018-11-23T13:12:32.699Z,67.20
2018-11-23T13:17:36.378Z,68.20
2018-11-23T13:22:40.275Z,69.80
2018-11-23T13:27:44.028Z,70.10
2018-11-23T13:32:47.646Z,71.20
2018-11-23T13:37:51.511Z,71.20
2018-11-23T13:42:56.179Z,70.80
2018-11-23T13:48:00.100Z,71.60
2018-11-23T13:53:05.883Z,72.10
2018-11-23T13:58:09.761Z,71.60
2018-11-23T14:03:17.222Z,70.90
2018-11-23T14:08:21.077Z,70.80
2018-11-23T14:13:24.684Z,71.20
2018-11-23T14:18:28.294Z,70.20
2018-11-23T14:23:32.574Z,70.10
2018-11-23T14:28:36.595Z,70.50
2018-11-23T14:33:40.644Z,70.80
2018-11-23T14:38:44.394Z,71.30
2018-11-23T14:43:48.063Z,72.20
2018-11-23T14:48:51.895Z,72.00
2018-11-23T14:53:55.516Z,71.80
2018-11-23T14:59:01.037Z,71.40
2018-11-23T15:04:07.642Z,71.20
2018-11-23T15:09:14.059Z,70.30
2018-11-23T15:14:17.671Z,70.10
2018-11-23T15:19:21.834Z,70.20
2018-11-23T15:24:28.666Z,69.90
2018-11-23T15:29:32.303Z,69.70
2018-11-23T15:34:35.918Z,69.40
2018-11-23T15:39:39.956Z,69.30
2018-11-23T15:44:43.848Z,68.90
2018-11-23T15:49:47.898Z,68.70
2018-11-23T15:54:51.716Z,69.40
2018-11-23T15:59:55.548Z,69.90
2018-11-23T16:04:59.463Z,69.80
2018-11-23T16:10:03.597Z,69.40
2018-11-23T16:15:08.361Z,69.40
2018-11-23T16:20:15.448Z,69.10
2018-11-23T16:25:19.468Z,69.10
2018-11-23T16:30:24.723Z,68.60
2018-11-23T16:35:32.462Z,69.00
2018-11-23T16:40:38.408Z,68.60
2018-11-23T16:45:44.482Z,68.60
2018-11-23T16:50:48.392Z,68.40
2018-11-23T16:55:52.260Z,68.60
2018-11-23T17:00:56.216Z,68.60
2018-11-23T17:06:00.459Z,69.30
2018-11-23T17:11:04.581Z,68.70
2018-11-23T17:16:08.436Z,68.70
2018-11-23T17:21:12.441Z,68.80
2018-11-23T17:26:16.402Z,68.90
2018-11-23T17:31:20.242Z,68.90
2018-11-23T17:36:24.041Z,68.50
2018-11-23T17:41:27.968Z,68.40
2018-11-23T17:46:32.109Z,68.40
2018-11-23T17:51:36.026Z,68.50
2018-11-23T17:56:39.836Z,68.90
2018-11-23T18:01:43.844Z,68.10
2018-11-23T18:06:48.015Z,67.80
2018-11-23T18:11:51.731Z,67.80
2018-11-23T18:16:55.671Z,67.70
2018-11-23T18:21:59.493Z,67.80
2018-11-23T18:27:03.332Z,68.00
2018-11-23T18:32:07.023Z,68.20
2018-11-23T18:37:10.793Z,68.40
2018-11-23T18:42:15.062Z,68.20
2018-11-23T18:47:19.070Z,68.20
2018-11-23T18:52:29.470Z,67.90
2018-11-23T18:57:33.336Z,67.80
2018-11-23T19:02:36.974Z,67.70
2018-11-23T19:07:40.814Z,67.50
2018-11-23T19:12:44.423Z,68.10
2018-11-23T19:17:50.734Z,69.30
2018-11-23T19:22:55.359Z,70.80
2018-11-23T19:27:58.983Z,72.10
2018-11-23T19:33:04.735Z,71.90
2018-11-23T19:38:08.639Z,73.00
2018-11-23T19:43:12.257Z,72.80
2018-11-23T19:48:15.873Z,71.80
2018-11-23T19:53:19.902Z,72.50
2018-11-23T19:58:23.594Z,73.00
2018-11-23T20:03:27.237Z,71.50
2018-11-23T20:08:30.850Z,70.60
2018-11-23T20:13:34.398Z,69.20
2018-11-23T20:18:38.385Z,70.50
2018-11-23T20:23:42.069Z,71.00
2018-11-23T20:28:45.909Z,70.60
2018-11-23T20:33:49.532Z,70.40
2018-11-23T20:38:53.112Z,70.00
2018-11-23T20:43:56.700Z,70.40
2018-11-23T20:49:00.287Z,69.90
2018-11-23T20:54:04.602Z,69.00
2018-11-23T20:59:08.357Z,69.60
2018-11-23T21:04:11.964Z,69.50
2018-11-23T21:09:15.887Z,69.00
2018-11-23T21:14:20.014Z,70.00
2018-11-23T21:19:24.058Z,71.10
2018-11-23T21:24:27.725Z,72.30
2018-11-23T21:29:31.745Z,72.80
2018-11-23T21:34:35.591Z,72.40
2018-11-23T21:39:39.348Z,71.10
2018-11-23T21:44:43.013Z,71.70
2018-11-23T21:49:46.588Z,71.00
2018-11-23T21:54:50.492Z,71.30
2018-11-23T21:59:54.772Z,71.30
2018-11-23T22:04:59.187Z,71.40
2018-11-23T22:10:03.500Z,70.60
2018-11-23T22:15:12.233Z,70.40
2018-11-23T22:20:18.169Z,70.70
2018-11-23T22:25:23.070Z,70.50
2018-11-23T22:30:29.295Z,70.60
2018-11-23T22:35:32.950Z,70.40
2018-11-23T22:40:36.546Z,70.60
2018-11-23T22:45:40.553Z,71.00
2018-11-23T22:50:44.122Z,70.60
2018-11-23T22:55:47.871Z,70.20
2018-11-23T23:00:55.727Z,70.00
2018-11-23T23:06:00.125Z,69.60
2018-11-23T23:11:03.248Z,69.50
2018-11-23T23:16:07.377Z,68.60
2018-11-23T23:21:11.207Z,68.60
2018-11-23T23:26:15.256Z,69.40
2018-11-23T23:31:18.805Z,71.00
2018-11-23T23:36:22.676Z,71.00
2018-11-23T23:41:26.376Z,72.00
2018-11-23T23:46:30.216Z,72.60
2018-11-23T23:51:34.202Z,72.40
2018-11-23T23:56:39.101Z,72.60
